Flight Track Log - Related Links

Times and Time Zones

All times are in EDT time to prevent confusion due to time zone crossing. See the EGF4260 flight status page for this flight to view local times or setup timezone preferences in your user account.

Time Position Orientation Groundspeed Altitude Reporting Facility
EDT Latitude Longitude Course Direction KTS MPH feet Rate Location/Type
Thu 04:51:25 PM 41.9333 -87.8500 173° South 227 261 3,400  Level Chicago TRACON
Thu 04:52:00 PM 41.8190 -87.7166 160° South  Level Estimated
Thu 04:52:19 PM 41.8833 -87.8833 206° Southwest 223 257 5,200  Level Chicago TRACON
Thu 04:53:00 PM 41.7376 -87.6220 157° South  Level Estimated
Thu 04:53:19 PM 41.8233 -87.9164 202° Southwest 242 278 7,000  Level Chicago Center
Thu 04:54:00 PM 41.6561 -87.5275 156° South  Level Estimated
Thu 04:54:21 PM 41.7478 -87.9139 179° South 266 306 9,200  Level Chicago Center
Thu 04:55:00 PM 41.5504 -87.5562 191° South  Level FlightAware Approximate
Thu 04:55:23 PM 41.6825 -87.8617 149° Southeast 281 323 11,200  Level Chicago Center
Thu 04:56:00 PM 41.4707 -87.4594 169° South  Level Estimated
Thu 04:56:25 PM 41.6158 -87.7967 144° Southeast 293 337 12,800  Level Chicago Center
Thu 04:57:00 PM 41.4009 -87.3749 173° South  Level Estimated
Thu 04:57:27 PM 41.5403 -87.7386 150° Southeast 309 356 14,300  Level Chicago Center
Thu 04:58:29 PM 41.4642 -87.6744 148° Southeast 319 367 15,900 1,645 Climbing Chicago Center
Thu 04:59:31 PM 41.3692 -87.5972 149° Southeast 331 381 17,700 1,355 Climbing Chicago Center
Thu 05:00:33 PM 41.2892 -87.5328 149° Southeast 334 384 18,700 968 Climbing Chicago Center
Thu 05:01:35 PM 41.2053 -87.4639 148° Southeast 347 399 19,700 960 Climbing Chicago Center
Thu 05:02:38 PM 41.1156 -87.3931 149° Southeast 367 422 20,700 960 Climbing Chicago Center
Thu 05:03:40 PM 41.0261 -87.3211 149° Southeast 375 432 21,700 1,065 Climbing Chicago Center
Thu 05:04:42 PM 40.9178 -87.2333 149° Southeast 379 436 22,900 629 Climbing Chicago Center
Thu 05:05:44 PM 40.8247 -87.1589 149° Southeast 388 447 23,000 48 Climbing Chicago Center
Thu 05:06:46 PM 40.7253 -87.0814 149° Southeast 408 470 23,000  Level Chicago Center
Thu 05:07:48 PM 40.6219 -86.9975 148° Southeast 413 475 23,000  Level Chicago Center
Thu 05:08:50 PM 40.5219 -86.9194 149° Southeast 417 480 23,000  Level Chicago Center
Thu 05:09:52 PM 40.4231 -86.8397 148° Southeast 419 482 23,000  Level Chicago Center
Thu 05:10:54 PM 40.3231 -86.7619 149° Southeast 417 480 23,000  Level Chicago Center
Thu 05:11:56 PM 40.2014 -86.6700 150° Southeast 421 484 23,000  Level Chicago Center
Thu 05:12:58 PM 40.1006 -86.5897 149° Southeast 424 488 23,000  Level Chicago Center
Thu 05:13:37 PM 40.0378 -86.5406 149° Southeast 426 490 23,000 -891 Level Indianapolis Center
Thu 05:14:39 PM 39.9367 -86.4619 149° Southeast 427 491 21,500 -1,790 Descending Indianapolis Center
Thu 05:15:41 PM 39.8333 -86.3667 145° Southeast 395 455 19,300 -2,016 Descending Indianapolis TRACON
Thu 05:16:41 PM 39.7833 -86.2500 119° Southeast 398 458 17,400 -1,850 Descending Indianapolis TRACON
Thu 05:17:41 PM 39.7333 -86.1167 116° Southeast 392 451 15,600 -1,606 Descending Indianapolis TRACON
Thu 05:18:48 PM 39.6933 -86.0039 115° Southeast 389 448 14,000 -791 Descending Indianapolis Center
Thu 05:19:50 PM 39.6408 -85.8514 114° Southeast 386 444 13,900 -194 Descending Indianapolis Center
Thu 05:20:52 PM 39.5975 -85.7236 114° Southeast 389 448 13,600 -1,161 Descending Indianapolis Center
Thu 05:21:54 PM 39.5561 -85.5989 113° Southeast 381 438 11,500 -1,306 Descending Indianapolis Center
Thu 05:22:56 PM 39.5150 -85.4772 114° Southeast 371 427 10,900 -290 Descending Indianapolis Center
Thu 05:23:58 PM 39.4558 -85.3692 125° Southeast 367 422 10,900 -48 Level Indianapolis Center
Thu 05:25:00 PM 39.4319 -85.2469 104° East 353 406 10,800 -823 Descending Indianapolis Center
Thu 05:26:02 PM 39.4061 -85.1247 105° East 297 342 9,200 -1,645 Descending Indianapolis Center
Thu 05:27:04 PM 39.3861 -85.0300 105° East 279 321 7,400 -1,694 Descending Indianapolis Center
Thu 05:28:06 PM 39.3675 -84.9386 105° East 268 308 5,700 -1,398 Descending Indianapolis Center
Thu 05:28:47 PM 39.3500 -84.8667 107° East 253 291 5,000 -416 Descending Cincinnati TRACON
Thu 05:29:47 PM 39.3333 -84.7833 104° East 258 297 5,000 -300 Level Cincinnati TRACON
Thu 05:30:47 PM 39.2833 -84.7167 134° Southeast 231 266 4,400 -600 Descending Cincinnati TRACON

Login

Don't have an account? Register now (free) for customized features, flight alerts, and more!